sensor_id;sensor_type;location;lat;lon;timestamp;P1;durP1;ratioP1;P2;durP2;ratioP2
22628;SDS011;11481;53.694;9.910;2024-03-22T00:00:18;24.88;;;12.77;;
22628;SDS011;11481;53.694;9.910;2024-03-22T00:02:44;26.67;;;12.95;;
22628;SDS011;11481;53.694;9.910;2024-03-22T00:05:10;24.70;;;12.98;;
22628;SDS011;11481;53.694;9.910;2024-03-22T00:07:36;31.58;;;13.73;;
22628;SDS011;11481;53.694;9.910;2024-03-22T00:10:02;26.92;;;13.43;;
22628;SDS011;11481;53.694;9.910;2024-03-22T00:12:28;30.10;;;13.55;;
22628;SDS011;11481;53.694;9.910;2024-03-22T00:14:54;27.30;;;12.98;;
22628;SDS011;11481;53.694;9.910;2024-03-22T00:17:20;26.52;;;13.68;;
22628;SDS011;11481;53.694;9.910;2024-03-22T00:19:46;25.08;;;13.40;;
22628;SDS011;11481;53.694;9.910;2024-03-22T00:22:12;26.40;;;13.98;;
22628;SDS011;11481;53.694;9.910;2024-03-22T00:24:38;27.30;;;13.90;;
22628;SDS011;11481;53.694;9.910;2024-03-22T00:27:04;31.65;;;13.00;;
22628;SDS011;11481;53.694;9.910;2024-03-22T00:29:29;23.38;;;13.32;;
22628;SDS011;11481;53.694;9.910;2024-03-22T00:31:55;23.48;;;12.95;;
22628;SDS011;11481;53.694;9.910;2024-03-22T00:34:21;28.00;;;13.82;;
22628;SDS011;11481;53.694;9.910;2024-03-22T00:36:47;25.58;;;13.60;;
22628;SDS011;11481;53.694;9.910;2024-03-22T00:39:12;30.52;;;13.82;;
22628;SDS011;11481;53.694;9.910;2024-03-22T00:41:38;26.10;;;14.30;;
22628;SDS011;11481;53.694;9.910;2024-03-22T00:44:04;27.65;;;13.82;;
22628;SDS011;11481;53.694;9.910;2024-03-22T00:46:30;27.17;;;14.25;;
22628;SDS011;11481;53.694;9.910;2024-03-22T00:48:56;24.35;;;13.75;;
22628;SDS011;11481;53.694;9.910;2024-03-22T00:51:23;28.75;;;14.05;;
22628;SDS011;11481;53.694;9.910;2024-03-22T00:53:50;31.45;;;14.32;;
22628;SDS011;11481;53.694;9.910;2024-03-22T00:56:16;27.35;;;13.82;;
22628;SDS011;11481;53.694;9.910;2024-03-22T00:58:42;29.80;;;15.10;;
22628;SDS011;11481;53.694;9.910;2024-03-22T01:01:08;26.48;;;14.90;;
22628;SDS011;11481;53.694;9.910;2024-03-22T01:03:33;27.73;;;15.02;;
22628;SDS011;11481;53.694;9.910;2024-03-22T01:05:59;28.55;;;14.85;;
22628;SDS011;11481;53.694;9.910;2024-03-22T01:08:25;35.28;;;14.85;;
22628;SDS011;11481;53.694;9.910;2024-03-22T01:10:51;26.92;;;14.10;;
22628;SDS011;11481;53.694;9.910;2024-03-22T01:13:17;26.40;;;14.48;;
22628;SDS011;11481;53.694;9.910;2024-03-22T01:15:42;24.63;;;14.27;;
22628;SDS011;11481;53.694;9.910;2024-03-22T01:18:09;27.95;;;14.25;;
22628;SDS011;11481;53.694;9.910;2024-03-22T01:20:35;27.15;;;13.93;;
22628;SDS011;11481;53.694;9.910;2024-03-22T01:23:00;25.75;;;14.95;;
22628;SDS011;11481;53.694;9.910;2024-03-22T01:25:27;25.05;;;13.45;;
22628;SDS011;11481;53.694;9.910;2024-03-22T01:27:53;26.70;;;14.73;;
22628;SDS011;11481;53.694;9.910;2024-03-22T01:30:20;29.48;;;14.68;;
22628;SDS011;11481;53.694;9.910;2024-03-22T01:32:45;25.20;;;14.18;;
22628;SDS011;11481;53.694;9.910;2024-03-22T01:35:11;30.02;;;15.73;;
22628;SDS011;11481;53.694;9.910;2024-03-22T01:37:37;32.80;;;15.02;;
22628;SDS011;11481;53.694;9.910;2024-03-22T01:40:07;29.20;;;14.30;;
22628;SDS011;11481;53.694;9.910;2024-03-22T01:42:33;28.65;;;15.25;;
22628;SDS011;11481;53.694;9.910;2024-03-22T01:44:59;28.98;;;15.43;;
22628;SDS011;11481;53.694;9.910;2024-03-22T01:47:25;32.22;;;17.35;;
22628;SDS011;11481;53.694;9.910;2024-03-22T01:49:51;30.83;;;16.13;;
22628;SDS011;11481;53.694;9.910;2024-03-22T01:52:20;29.20;;;15.07;;
22628;SDS011;11481;53.694;9.910;2024-03-22T01:54:45;27.60;;;14.70;;
22628;SDS011;11481;53.694;9.910;2024-03-22T01:57:11;28.92;;;15.73;;
22628;SDS011;11481;53.694;9.910;2024-03-22T01:59:37;29.77;;;15.77;;
22628;SDS011;11481;53.694;9.910;2024-03-22T02:02:04;28.52;;;15.35;;
22628;SDS011;11481;53.694;9.910;2024-03-22T02:04:30;34.55;;;16.13;;
22628;SDS011;11481;53.694;9.910;2024-03-22T02:06:56;35.25;;;16.40;;
22628;SDS011;11481;53.694;9.910;2024-03-22T02:09:22;36.33;;;17.80;;
22628;SDS011;11481;53.694;9.910;2024-03-22T02:11:47;30.77;;;15.13;;
22628;SDS011;11481;53.694;9.910;2024-03-22T02:14:14;35.25;;;16.75;;
22628;SDS011;11481;53.694;9.910;2024-03-22T02:16:40;31.52;;;16.42;;
22628;SDS011;11481;53.694;9.910;2024-03-22T02:19:06;35.63;;;16.85;;
22628;SDS011;11481;53.694;9.910;2024-03-22T02:21:32;32.47;;;16.35;;
22628;SDS011;11481;53.694;9.910;2024-03-22T02:23:58;38.35;;;17.63;;
22628;SDS011;11481;53.694;9.910;2024-03-22T02:26:24;31.02;;;15.70;;
22628;SDS011;11481;53.694;9.910;2024-03-22T02:28:49;31.13;;;15.82;;
22628;SDS011;11481;53.694;9.910;2024-03-22T02:31:15;32.67;;;17.13;;
22628;SDS011;11481;53.694;9.910;2024-03-22T02:33:41;33.90;;;17.02;;
22628;SDS011;11481;53.694;9.910;2024-03-22T02:36:07;32.47;;;17.13;;
22628;SDS011;11481;53.694;9.910;2024-03-22T02:38:34;38.75;;;17.65;;
22628;SDS011;11481;53.694;9.910;2024-03-22T02:40:59;37.22;;;17.95;;
22628;SDS011;11481;53.694;9.910;2024-03-22T02:43:25;37.92;;;18.35;;
22628;SDS011;11481;53.694;9.910;2024-03-22T02:45:51;35.92;;;18.25;;
22628;SDS011;11481;53.694;9.910;2024-03-22T02:48:17;36.78;;;17.83;;
22628;SDS011;11481;53.694;9.910;2024-03-22T02:50:43;38.47;;;18.65;;
22628;SDS011;11481;53.694;9.910;2024-03-22T02:53:08;37.05;;;18.58;;
22628;SDS011;11481;53.694;9.910;2024-03-22T02:55:38;41.13;;;20.05;;
22628;SDS011;11481;53.694;9.910;2024-03-22T02:58:05;36.20;;;18.33;;
22628;SDS011;11481;53.694;9.910;2024-03-22T03:00:35;39.85;;;19.00;;
22628;SDS011;11481;53.694;9.910;2024-03-22T03:03:02;42.38;;;20.25;;
22628;SDS011;11481;53.694;9.910;2024-03-22T03:05:28;41.85;;;19.05;;
22628;SDS011;11481;53.694;9.910;2024-03-22T03:07:54;43.50;;;20.73;;
22628;SDS011;11481;53.694;9.910;2024-03-22T03:10:20;41.17;;;21.67;;
22628;SDS011;11481;53.694;9.910;2024-03-22T03:12:46;39.97;;;20.50;;
22628;SDS011;11481;53.694;9.910;2024-03-22T03:15:12;41.08;;;20.73;;
22628;SDS011;11481;53.694;9.910;2024-03-22T03:17:37;45.63;;;21.48;;
22628;SDS011;11481;53.694;9.910;2024-03-22T03:20:03;38.88;;;20.13;;
22628;SDS011;11481;53.694;9.910;2024-03-22T03:22:33;44.67;;;20.92;;
22628;SDS011;11481;53.694;9.910;2024-03-22T03:25:00;41.45;;;20.98;;
22628;SDS011;11481;53.694;9.910;2024-03-22T03:27:26;43.95;;;21.58;;
22628;SDS011;11481;53.694;9.910;2024-03-22T03:29:52;42.13;;;22.48;;
22628;SDS011;11481;53.694;9.910;2024-03-22T03:32:18;46.17;;;21.65;;
22628;SDS011;11481;53.694;9.910;2024-03-22T03:34:43;46.95;;;22.65;;
22628;SDS011;11481;53.694;9.910;2024-03-22T03:37:09;47.17;;;23.33;;
22628;SDS011;11481;53.694;9.910;2024-03-22T03:39:38;47.75;;;22.83;;
22628;SDS011;11481;53.694;9.910;2024-03-22T03:42:03;50.15;;;22.98;;
22628;SDS011;11481;53.694;9.910;2024-03-22T03:44:33;49.17;;;23.67;;
22628;SDS011;11481;53.694;9.910;2024-03-22T03:47:00;44.90;;;23.15;;
22628;SDS011;11481;53.694;9.910;2024-03-22T03:49:27;51.75;;;24.30;;
22628;SDS011;11481;53.694;9.910;2024-03-22T03:51:52;46.28;;;23.33;;
22628;SDS011;11481;53.694;9.910;2024-03-22T03:54:18;46.50;;;23.55;;
22628;SDS011;11481;53.694;9.910;2024-03-22T03:56:44;46.88;;;22.92;;
22628;SDS011;11481;53.694;9.910;2024-03-22T03:59:10;49.33;;;25.23;;
22628;SDS011;11481;53.694;9.910;2024-03-22T04:01:35;49.95;;;24.50;;
22628;SDS011;11481;53.694;9.910;2024-03-22T04:04:02;52.92;;;26.00;;
22628;SDS011;11481;53.694;9.910;2024-03-22T04:06:28;47.70;;;25.02;;
22628;SDS011;11481;53.694;9.910;2024-03-22T04:08:54;48.72;;;26.52;;
22628;SDS011;11481;53.694;9.910;2024-03-22T04:11:20;47.13;;;25.30;;
22628;SDS011;11481;53.694;9.910;2024-03-22T04:13:46;51.78;;;25.23;;
22628;SDS011;11481;53.694;9.910;2024-03-22T04:16:13;52.65;;;25.85;;
22628;SDS011;11481;53.694;9.910;2024-03-22T04:18:39;50.75;;;25.42;;
22628;SDS011;11481;53.694;9.910;2024-03-22T04:21:05;50.15;;;25.83;;
22628;SDS011;11481;53.694;9.910;2024-03-22T04:23:31;55.78;;;25.70;;
22628;SDS011;11481;53.694;9.910;2024-03-22T04:25:57;54.08;;;26.88;;
22628;SDS011;11481;53.694;9.910;2024-03-22T04:28:24;55.10;;;26.50;;
22628;SDS011;11481;53.694;9.910;2024-03-22T04:30:54;58.45;;;27.90;;
22628;SDS011;11481;53.694;9.910;2024-03-22T04:33:24;54.35;;;27.17;;
22628;SDS011;11481;53.694;9.910;2024-03-22T04:35:51;58.53;;;27.55;;
22628;SDS011;11481;53.694;9.910;2024-03-22T04:38:16;61.50;;;28.90;;
22628;SDS011;11481;53.694;9.910;2024-03-22T04:40:42;51.60;;;26.55;;
22628;SDS011;11481;53.694;9.910;2024-03-22T04:43:08;59.03;;;30.38;;
22628;SDS011;11481;53.694;9.910;2024-03-22T04:45:34;59.97;;;29.05;;
22628;SDS011;11481;53.694;9.910;2024-03-22T04:48:03;62.85;;;28.90;;
22628;SDS011;11481;53.694;9.910;2024-03-22T04:50:30;64.40;;;29.20;;
22628;SDS011;11481;53.694;9.910;2024-03-22T04:52:56;57.45;;;28.98;;
22628;SDS011;11481;53.694;9.910;2024-03-22T04:55:22;60.97;;;28.25;;
22628;SDS011;11481;53.694;9.910;2024-03-22T04:57:48;64.63;;;30.35;;
22628;SDS011;11481;53.694;9.910;2024-03-22T05:00:14;57.97;;;28.23;;
22628;SDS011;11481;53.694;9.910;2024-03-22T05:02:44;62.75;;;29.95;;
22628;SDS011;11481;53.694;9.910;2024-03-22T05:05:09;63.10;;;30.92;;
22628;SDS011;11481;53.694;9.910;2024-03-22T05:07:36;63.60;;;30.92;;
22628;SDS011;11481;53.694;9.910;2024-03-22T05:10:01;62.78;;;29.88;;
22628;SDS011;11481;53.694;9.910;2024-03-22T05:12:28;61.47;;;29.55;;
22628;SDS011;11481;53.694;9.910;2024-03-22T05:14:54;63.40;;;30.27;;
22628;SDS011;11481;53.694;9.910;2024-03-22T05:17:20;67.32;;;30.00;;
22628;SDS011;11481;53.694;9.910;2024-03-22T05:19:46;63.70;;;31.88;;
22628;SDS011;11481;53.694;9.910;2024-03-22T05:22:12;65.03;;;30.50;;
22628;SDS011;11481;53.694;9.910;2024-03-22T05:24:38;63.00;;;31.20;;
22628;SDS011;11481;53.694;9.910;2024-03-22T05:27:04;67.63;;;32.33;;
22628;SDS011;11481;53.694;9.910;2024-03-22T05:29:30;63.75;;;32.22;;
22628;SDS011;11481;53.694;9.910;2024-03-22T05:31:56;72.40;;;32.03;;
22628;SDS011;11481;53.694;9.910;2024-03-22T05:34:22;67.35;;;31.35;;
22628;SDS011;11481;53.694;9.910;2024-03-22T05:36:48;70.93;;;31.70;;
22628;SDS011;11481;53.694;9.910;2024-03-22T05:39:14;71.75;;;31.35;;
22628;SDS011;11481;53.694;9.910;2024-03-22T05:41:40;65.80;;;32.08;;
22628;SDS011;11481;53.694;9.910;2024-03-22T05:44:06;71.15;;;33.58;;
22628;SDS011;11481;53.694;9.910;2024-03-22T05:46:33;70.18;;;31.65;;
22628;SDS011;11481;53.694;9.910;2024-03-22T05:48:59;71.38;;;33.22;;
22628;SDS011;11481;53.694;9.910;2024-03-22T05:51:25;63.30;;;32.42;;
22628;SDS011;11481;53.694;9.910;2024-03-22T05:53:51;69.30;;;32.17;;
22628;SDS011;11481;53.694;9.910;2024-03-22T05:56:17;70.10;;;32.80;;
22628;SDS011;11481;53.694;9.910;2024-03-22T05:58:43;67.30;;;31.63;;
22628;SDS011;11481;53.694;9.910;2024-03-22T06:01:09;74.05;;;33.58;;
22628;SDS011;11481;53.694;9.910;2024-03-22T06:03:35;68.93;;;32.08;;
22628;SDS011;11481;53.694;9.910;2024-03-22T06:06:01;67.63;;;33.55;;
22628;SDS011;11481;53.694;9.910;2024-03-22T06:08:27;68.28;;;34.20;;
22628;SDS011;11481;53.694;9.910;2024-03-22T06:10:54;70.53;;;33.28;;
22628;SDS011;11481;53.694;9.910;2024-03-22T06:13:21;69.93;;;33.22;;
22628;SDS011;11481;53.694;9.910;2024-03-22T06:15:50;69.63;;;34.28;;
22628;SDS011;11481;53.694;9.910;2024-03-22T06:18:16;74.88;;;35.28;;
22628;SDS011;11481;53.694;9.910;2024-03-22T06:20:42;71.30;;;33.72;;
22628;SDS011;11481;53.694;9.910;2024-03-22T06:23:08;71.07;;;33.72;;
22628;SDS011;11481;53.694;9.910;2024-03-22T06:25:34;73.05;;;35.03;;
22628;SDS011;11481;53.694;9.910;2024-03-22T06:28:00;77.13;;;35.05;;
22628;SDS011;11481;53.694;9.910;2024-03-22T06:30:27;80.88;;;35.38;;
22628;SDS011;11481;53.694;9.910;2024-03-22T06:32:53;72.57;;;32.60;;
22628;SDS011;11481;53.694;9.910;2024-03-22T06:35:20;71.32;;;33.58;;
22628;SDS011;11481;53.694;9.910;2024-03-22T06:37:46;71.40;;;34.03;;
22628;SDS011;11481;53.694;9.910;2024-03-22T06:40:13;76.88;;;34.60;;
22628;SDS011;11481;53.694;9.910;2024-03-22T06:42:40;76.20;;;34.63;;
22628;SDS011;11481;53.694;9.910;2024-03-22T06:45:06;82.10;;;35.55;;
22628;SDS011;11481;53.694;9.910;2024-03-22T06:47:32;71.70;;;35.20;;
22628;SDS011;11481;53.694;9.910;2024-03-22T06:49:58;79.47;;;36.05;;
22628;SDS011;11481;53.694;9.910;2024-03-22T06:52:24;77.57;;;36.28;;
22628;SDS011;11481;53.694;9.910;2024-03-22T06:54:50;77.25;;;34.97;;
22628;SDS011;11481;53.694;9.910;2024-03-22T06:57:17;71.68;;;35.38;;
22628;SDS011;11481;53.694;9.910;2024-03-22T06:59:43;76.07;;;34.08;;
22628;SDS011;11481;53.694;9.910;2024-03-22T07:02:09;79.20;;;34.95;;
22628;SDS011;11481;53.694;9.910;2024-03-22T07:04:35;81.95;;;36.38;;
22628;SDS011;11481;53.694;9.910;2024-03-22T07:07:01;76.05;;;34.88;;
22628;SDS011;11481;53.694;9.910;2024-03-22T07:09:26;82.75;;;36.90;;
22628;SDS011;11481;53.694;9.910;2024-03-22T07:11:55;80.88;;;37.10;;
22628;SDS011;11481;53.694;9.910;2024-03-22T07:14:20;77.75;;;35.03;;
22628;SDS011;11481;53.694;9.910;2024-03-22T07:16:49;81.25;;;37.33;;
22628;SDS011;11481;53.694;9.910;2024-03-22T07:19:15;75.47;;;34.85;;
22628;SDS011;11481;53.694;9.910;2024-03-22T07:21:41;76.50;;;37.28;;
22628;SDS011;11481;53.694;9.910;2024-03-22T07:24:07;80.45;;;37.13;;
22628;SDS011;11481;53.694;9.910;2024-03-22T07:26:33;80.18;;;37.35;;
22628;SDS011;11481;53.694;9.910;2024-03-22T07:28:59;80.07;;;36.92;;
22628;SDS011;11481;53.694;9.910;2024-03-22T07:31:24;75.45;;;36.28;;
22628;SDS011;11481;53.694;9.910;2024-03-22T07:33:50;75.50;;;35.35;;
22628;SDS011;11481;53.694;9.910;2024-03-22T07:36:18;83.75;;;36.88;;
22628;SDS011;11481;53.694;9.910;2024-03-22T07:38:44;77.70;;;37.05;;
22628;SDS011;11481;53.694;9.910;2024-03-22T07:41:10;79.00;;;36.58;;
22628;SDS011;11481;53.694;9.910;2024-03-22T07:43:36;78.38;;;35.67;;
22628;SDS011;11481;53.694;9.910;2024-03-22T07:46:02;80.97;;;35.33;;
22628;SDS011;11481;53.694;9.910;2024-03-22T07:48:27;78.93;;;37.80;;
22628;SDS011;11481;53.694;9.910;2024-03-22T07:51:00;75.60;;;36.10;;
22628;SDS011;11481;53.694;9.910;2024-03-22T07:53:26;78.32;;;36.05;;
22628;SDS011;11481;53.694;9.910;2024-03-22T07:55:52;76.60;;;36.03;;
22628;SDS011;11481;53.694;9.910;2024-03-22T07:58:18;74.38;;;35.92;;
22628;SDS011;11481;53.694;9.910;2024-03-22T08:00:45;80.50;;;35.38;;
22628;SDS011;11481;53.694;9.910;2024-03-22T08:03:15;74.20;;;35.97;;
22628;SDS011;11481;53.694;9.910;2024-03-22T08:05:42;81.50;;;35.08;;
22628;SDS011;11481;53.694;9.910;2024-03-22T08:08:08;74.82;;;35.45;;
22628;SDS011;11481;53.694;9.910;2024-03-22T08:10:34;81.35;;;37.17;;
22628;SDS011;11481;53.694;9.910;2024-03-22T08:12:59;75.38;;;34.72;;
22628;SDS011;11481;53.694;9.910;2024-03-22T08:15:29;80.50;;;36.92;;
22628;SDS011;11481;53.694;9.910;2024-03-22T08:17:55;77.85;;;35.17;;
22628;SDS011;11481;53.694;9.910;2024-03-22T08:20:23;79.65;;;37.30;;
22628;SDS011;11481;53.694;9.910;2024-03-22T08:22:49;75.88;;;37.97;;
22628;SDS011;11481;53.694;9.910;2024-03-22T08:25:15;78.68;;;36.10;;
22628;SDS011;11481;53.694;9.910;2024-03-22T08:27:45;82.28;;;37.90;;
22628;SDS011;11481;53.694;9.910;2024-03-22T08:30:12;84.35;;;37.55;;
22628;SDS011;11481;53.694;9.910;2024-03-22T08:32:39;82.03;;;38.10;;
22628;SDS011;11481;53.694;9.910;2024-03-22T08:35:05;80.72;;;38.50;;
22628;SDS011;11481;53.694;9.910;2024-03-22T08:37:31;86.45;;;38.58;;
22628;SDS011;11481;53.694;9.910;2024-03-22T08:39:58;86.70;;;39.53;;
22628;SDS011;11481;53.694;9.910;2024-03-22T08:42:24;83.15;;;37.70;;
22628;SDS011;11481;53.694;9.910;2024-03-22T08:44:50;78.70;;;37.72;;
22628;SDS011;11481;53.694;9.910;2024-03-22T08:47:16;79.53;;;37.50;;
22628;SDS011;11481;53.694;9.910;2024-03-22T08:49:42;81.57;;;37.13;;
22628;SDS011;11481;53.694;9.910;2024-03-22T08:52:09;83.78;;;38.30;;
22628;SDS011;11481;53.694;9.910;2024-03-22T08:54:35;87.90;;;37.58;;
22628;SDS011;11481;53.694;9.910;2024-03-22T08:57:01;81.40;;;37.28;;
22628;SDS011;11481;53.694;9.910;2024-03-22T08:59:27;84.85;;;36.92;;
22628;SDS011;11481;53.694;9.910;2024-03-22T09:01:53;81.78;;;36.88;;
22628;SDS011;11481;53.694;9.910;2024-03-22T09:04:19;80.65;;;36.90;;
22628;SDS011;11481;53.694;9.910;2024-03-22T09:06:45;78.97;;;37.90;;
22628;SDS011;11481;53.694;9.910;2024-03-22T09:09:12;83.63;;;36.75;;
22628;SDS011;11481;53.694;9.910;2024-03-22T09:11:37;87.13;;;39.35;;
22628;SDS011;11481;53.694;9.910;2024-03-22T09:14:03;78.40;;;36.55;;
22628;SDS011;11481;53.694;9.910;2024-03-22T09:16:29;80.45;;;37.10;;
22628;SDS011;11481;53.694;9.910;2024-03-22T09:18:55;83.38;;;37.42;;
22628;SDS011;11481;53.694;9.910;2024-03-22T09:21:21;84.10;;;37.25;;
22628;SDS011;11481;53.694;9.910;2024-03-22T09:23:47;79.32;;;35.47;;
22628;SDS011;11481;53.694;9.910;2024-03-22T09:26:13;76.45;;;37.20;;
22628;SDS011;11481;53.694;9.910;2024-03-22T09:28:39;80.18;;;36.22;;
22628;SDS011;11481;53.694;9.910;2024-03-22T09:31:06;76.13;;;35.92;;
22628;SDS011;11481;53.694;9.910;2024-03-22T09:33:33;75.65;;;35.58;;
22628;SDS011;11481;53.694;9.910;2024-03-22T09:35:59;77.72;;;37.20;;
22628;SDS011;11481;53.694;9.910;2024-03-22T09:38:25;75.38;;;36.40;;
22628;SDS011;11481;53.694;9.910;2024-03-22T09:40:51;79.05;;;36.22;;
22628;SDS011;11481;53.694;9.910;2024-03-22T09:43:21;79.70;;;36.30;;
22628;SDS011;11481;53.694;9.910;2024-03-22T09:45:47;77.53;;;34.60;;
22628;SDS011;11481;53.694;9.910;2024-03-22T09:48:18;78.78;;;34.85;;
22628;SDS011;11481;53.694;9.910;2024-03-22T09:50:47;77.68;;;35.20;;
22628;SDS011;11481;53.694;9.910;2024-03-22T09:53:16;72.57;;;34.53;;
22628;SDS011;11481;53.694;9.910;2024-03-22T09:55:48;78.13;;;34.90;;
22628;SDS011;11481;53.694;9.910;2024-03-22T09:58:15;76.15;;;33.85;;
22628;SDS011;11481;53.694;9.910;2024-03-22T10:00:42;73.90;;;34.40;;
22628;SDS011;11481;53.694;9.910;2024-03-22T10:03:09;77.35;;;34.65;;
22628;SDS011;11481;53.694;9.910;2024-03-22T10:05:36;74.80;;;33.92;;
22628;SDS011;11481;53.694;9.910;2024-03-22T10:08:02;71.25;;;32.25;;
22628;SDS011;11481;53.694;9.910;2024-03-22T10:10:31;70.40;;;33.28;;
22628;SDS011;11481;53.694;9.910;2024-03-22T10:12:57;66.43;;;30.80;;
22628;SDS011;11481;53.694;9.910;2024-03-22T10:15:26;61.13;;;30.08;;
22628;SDS011;11481;53.694;9.910;2024-03-22T10:17:52;65.38;;;29.33;;
22628;SDS011;11481;53.694;9.910;2024-03-22T10:20:21;66.63;;;29.23;;
22628;SDS011;11481;53.694;9.910;2024-03-22T10:22:57;67.57;;;29.13;;
22628;SDS011;11481;53.694;9.910;2024-03-22T10:25:24;67.40;;;29.67;;
22628;SDS011;11481;53.694;9.910;2024-03-22T10:27:53;55.80;;;26.23;;
22628;SDS011;11481;53.694;9.910;2024-03-22T10:30:20;55.72;;;26.80;;
22628;SDS011;11481;53.694;9.910;2024-03-22T10:32:47;58.38;;;25.85;;
22628;SDS011;11481;53.694;9.910;2024-03-22T10:35:14;55.92;;;25.05;;
22628;SDS011;11481;53.694;9.910;2024-03-22T10:37:41;60.58;;;25.10;;
22628;SDS011;11481;53.694;9.910;2024-03-22T10:40:07;54.92;;;25.00;;
22628;SDS011;11481;53.694;9.910;2024-03-22T10:42:37;53.05;;;25.52;;
22628;SDS011;11481;53.694;9.910;2024-03-22T10:45:05;50.53;;;24.52;;
22628;SDS011;11481;53.694;9.910;2024-03-22T10:47:33;54.67;;;23.98;;
22628;SDS011;11481;53.694;9.910;2024-03-22T10:50:03;50.03;;;22.35;;
22628;SDS011;11481;53.694;9.910;2024-03-22T10:52:40;49.25;;;23.05;;
22628;SDS011;11481;53.694;9.910;2024-03-22T10:55:18;47.88;;;21.48;;
22628;SDS011;11481;53.694;9.910;2024-03-22T10:57:49;46.88;;;22.13;;
22628;SDS011;11481;53.694;9.910;2024-03-22T11:00:16;49.38;;;21.40;;
22628;SDS011;11481;53.694;9.910;2024-03-22T11:02:53;42.03;;;18.95;;
22628;SDS011;11481;53.694;9.910;2024-03-22T11:05:19;39.38;;;18.67;;
22628;SDS011;11481;53.694;9.910;2024-03-22T11:07:45;33.53;;;17.48;;
22628;SDS011;11481;53.694;9.910;2024-03-22T11:10:14;36.65;;;17.50;;
22628;SDS011;11481;53.694;9.910;2024-03-22T11:12:41;35.63;;;16.27;;
22628;SDS011;11481;53.694;9.910;2024-03-22T11:15:10;35.50;;;16.55;;
22628;SDS011;11481;53.694;9.910;2024-03-22T11:17:37;34.38;;;15.95;;
22628;SDS011;11481;53.694;9.910;2024-03-22T11:20:03;31.73;;;15.10;;
22628;SDS011;11481;53.694;9.910;2024-03-22T11:22:31;30.52;;;14.82;;
22628;SDS011;11481;53.694;9.910;2024-03-22T11:24:56;29.08;;;13.77;;
22628;SDS011;11481;53.694;9.910;2024-03-22T11:27:23;28.98;;;13.85;;
22628;SDS011;11481;53.694;9.910;2024-03-22T11:29:49;22.95;;;11.85;;
22628;SDS011;11481;53.694;9.910;2024-03-22T11:32:16;24.75;;;12.23;;
22628;SDS011;11481;53.694;9.910;2024-03-22T11:34:42;22.77;;;10.77;;
22628;SDS011;11481;53.694;9.910;2024-03-22T11:37:09;25.42;;;11.90;;
22628;SDS011;11481;53.694;9.910;2024-03-22T11:39:39;21.98;;;9.90;;
22628;SDS011;11481;53.694;9.910;2024-03-22T11:42:05;18.70;;;10.20;;
22628;SDS011;11481;53.694;9.910;2024-03-22T11:44:32;19.83;;;10.13;;
22628;SDS011;11481;53.694;9.910;2024-03-22T11:46:59;23.33;;;10.57;;
22628;SDS011;11481;53.694;9.910;2024-03-22T11:49:25;17.35;;;9.60;;
22628;SDS011;11481;53.694;9.910;2024-03-22T11:51:51;19.40;;;9.20;;
22628;SDS011;11481;53.694;9.910;2024-03-22T11:54:20;17.63;;;9.65;;
22628;SDS011;11481;53.694;9.910;2024-03-22T11:56:46;16.27;;;9.18;;
22628;SDS011;11481;53.694;9.910;2024-03-22T11:59:12;17.60;;;9.50;;
22628;SDS011;11481;53.694;9.910;2024-03-22T12:01:38;15.45;;;9.35;;
22628;SDS011;11481;53.694;9.910;2024-03-22T12:04:06;16.13;;;10.02;;
22628;SDS011;11481;53.694;9.910;2024-03-22T12:06:36;15.15;;;8.45;;
22628;SDS011;11481;53.694;9.910;2024-03-22T12:09:02;16.02;;;8.73;;
22628;SDS011;11481;53.694;9.910;2024-03-22T12:11:28;17.33;;;9.30;;
22628;SDS011;11481;53.694;9.910;2024-03-22T12:13:54;13.32;;;7.18;;
22628;SDS011;11481;53.694;9.910;2024-03-22T12:16:21;13.93;;;7.68;;
22628;SDS011;11481;53.694;9.910;2024-03-22T12:18:47;9.63;;;4.82;;
22628;SDS011;11481;53.694;9.910;2024-03-22T12:21:13;10.43;;;5.03;;
22628;SDS011;11481;53.694;9.910;2024-03-22T12:23:39;7.35;;;4.20;;
22628;SDS011;11481;53.694;9.910;2024-03-22T12:26:05;10.30;;;4.28;;
22628;SDS011;11481;53.694;9.910;2024-03-22T12:28:31;9.63;;;4.50;;
22628;SDS011;11481;53.694;9.910;2024-03-22T12:30:57;8.48;;;4.55;;
22628;SDS011;11481;53.694;9.910;2024-03-22T12:33:23;7.57;;;4.40;;
22628;SDS011;11481;53.694;9.910;2024-03-22T12:35:49;6.95;;;4.00;;
22628;SDS011;11481;53.694;9.910;2024-03-22T12:38:14;10.20;;;4.05;;
22628;SDS011;11481;53.694;9.910;2024-03-22T12:40:40;6.85;;;3.80;;
22628;SDS011;11481;53.694;9.910;2024-03-22T12:43:07;7.90;;;4.18;;
22628;SDS011;11481;53.694;9.910;2024-03-22T12:45:34;6.22;;;3.10;;
22628;SDS011;11481;53.694;9.910;2024-03-22T12:48:00;7.07;;;4.15;;
22628;SDS011;11481;53.694;9.910;2024-03-22T12:50:26;8.75;;;3.53;;
22628;SDS011;11481;53.694;9.910;2024-03-22T12:52:52;7.78;;;4.10;;
22628;SDS011;11481;53.694;9.910;2024-03-22T12:55:18;7.85;;;4.07;;
22628;SDS011;11481;53.694;9.910;2024-03-22T12:57:44;5.45;;;3.50;;
22628;SDS011;11481;53.694;9.910;2024-03-22T13:00:10;7.90;;;4.40;;
22628;SDS011;11481;53.694;9.910;2024-03-22T13:02:43;9.05;;;3.72;;
22628;SDS011;11481;53.694;9.910;2024-03-22T13:05:10;5.38;;;3.45;;
22628;SDS011;11481;53.694;9.910;2024-03-22T13:07:36;7.07;;;3.60;;
22628;SDS011;11481;53.694;9.910;2024-03-22T13:10:02;8.25;;;3.00;;
22628;SDS011;11481;53.694;9.910;2024-03-22T13:12:28;6.70;;;3.50;;
22628;SDS011;11481;53.694;9.910;2024-03-22T13:14:56;4.97;;;3.20;;
22628;SDS011;11481;53.694;9.910;2024-03-22T13:17:23;4.43;;;2.80;;
22628;SDS011;11481;53.694;9.910;2024-03-22T13:19:49;4.72;;;3.38;;
22628;SDS011;11481;53.694;9.910;2024-03-22T13:22:15;4.55;;;2.63;;
22628;SDS011;11481;53.694;9.910;2024-03-22T13:24:44;4.43;;;2.85;;
22628;SDS011;11481;53.694;9.910;2024-03-22T13:27:11;3.25;;;2.22;;
22628;SDS011;11481;53.694;9.910;2024-03-22T13:29:38;3.42;;;1.98;;
22628;SDS011;11481;53.694;9.910;2024-03-22T13:32:04;5.30;;;2.17;;
22628;SDS011;11481;53.694;9.910;2024-03-22T13:34:33;2.85;;;1.85;;
22628;SDS011;11481;53.694;9.910;2024-03-22T13:37:02;3.88;;;2.30;;
22628;SDS011;11481;53.694;9.910;2024-03-22T13:39:28;3.75;;;2.05;;
22628;SDS011;11481;53.694;9.910;2024-03-22T13:41:55;3.30;;;2.00;;
22628;SDS011;11481;53.694;9.910;2024-03-22T13:44:21;4.05;;;2.13;;
22628;SDS011;11481;53.694;9.910;2024-03-22T13:46:49;3.53;;;2.35;;
22628;SDS011;11481;53.694;9.910;2024-03-22T13:49:18;3.58;;;2.40;;
22628;SDS011;11481;53.694;9.910;2024-03-22T13:51:46;3.40;;;2.13;;
22628;SDS011;11481;53.694;9.910;2024-03-22T13:54:13;3.83;;;2.20;;
22628;SDS011;11481;53.694;9.910;2024-03-22T13:56:39;4.57;;;2.30;;
22628;SDS011;11481;53.694;9.910;2024-03-22T13:59:05;4.60;;;2.30;;
22628;SDS011;11481;53.694;9.910;2024-03-22T14:01:31;3.72;;;2.28;;
22628;SDS011;11481;53.694;9.910;2024-03-22T14:03:57;2.78;;;1.90;;
22628;SDS011;11481;53.694;9.910;2024-03-22T14:06:23;7.10;;;2.25;;
22628;SDS011;11481;53.694;9.910;2024-03-22T14:08:49;3.70;;;2.20;;
22628;SDS011;11481;53.694;9.910;2024-03-22T14:11:15;6.60;;;2.20;;
22628;SDS011;11481;53.694;9.910;2024-03-22T14:13:40;9.50;;;2.60;;
22628;SDS011;11481;53.694;9.910;2024-03-22T14:16:06;7.13;;;2.60;;
22628;SDS011;11481;53.694;9.910;2024-03-22T14:18:34;11.13;;;2.40;;
22628;SDS011;11481;53.694;9.910;2024-03-22T14:21:01;13.02;;;2.35;;